Terminal Aerodrome Forecast
Issued by NWS Tulsa, OK

Home | Current Version | Previous Version | Text Only | Print | Product List | Glossary On
Versions: 1 2 3 4 5 6 7 8 9 10 11 12 13 14 15
000
FTUS44 KTSA 211700
TAFTUL
TAF
KTUL 211738Z 2118/2218 15008KT P6SM OVC012
     FM220200 17009KT P6SM OVC010
     FM220900 17010KT 5SM BR VCSH OVC008
     FM221200 18011KT 4SM -TSRA BR OVC008CB=

USA.gov is the U.S. government's official web portal to all federal, state and local government web resources and services.